Delta Virtual Airport Information Service

Los Angeles International Airport

ICAO: KLAX Country: United States
Latitude: 33.9425 Longitude: -118.407
Latest Arrival : DALJUMP (KDTW-KLAX) Latest Departure : DAL468 (1A) (KLAX-KJFK)


WX CaptureLIVE
Data provided by noaa.gov | Fetched at 22:38:44

METAR : KLAX 250253Z 24007KT 9SM FEW250 16/13 A2988 RMK AO2 SLP116 T01610128 55004 $

TAF : KLAX 250318Z 2503/2606 25006KT P6SM FEW015 FM251100 12005KT 1SM BR BKN003 FM251600 VRB03KT 4SM HZ SCT005 FM251800 25007KT P6SM SKC FM252000 25012KT P6SM SKC FM260400 25006KT P6SM SKC


Runway Data for KLAX
Data provided by openaviationdata.com

Runway ID Mag Var Hdg Length Elevation Surface ILS Freq ILS Id ILS Slope
06L 13 69° 8916 ft 126 ft Concrete 108.5 IUWU 3
06R 13 69° 10274 ft 126 ft Concrete 111.7 IGPE 3
07L 13 69° 12078 ft 126 ft Concrete 111.1 IIAS 3
07R 13 69° 11084 ft 126 ft Concrete 109.9 IMKZ 3
24L 13 249° 10274 ft 126 ft Concrete 111.7 IHQB 3
24R 13 249° 8916 ft 126 ft Concrete 108.5 IOSS 3
25L 13 249° 11084 ft 126 ft Concrete 109.9 ILAX 3
25R 13 249° 12078 ft 126 ft Concrete 111.1 ICFN 3

Los Angeles International Airport, United States
Use only for reference purposes



Not for navigational purposes.